Terminal Aerodrome Forecast
Issued by NWS

Home | Current Version | Previous Version | Text Only | Print | Product List | Glossary On
Versions: 1 2 3 4 5 6 7 8 9 10 11 12 13 14 15 16 17 18 19 20 21 22 23 24
000
FTUS42 KCAE 291133
TAFOGB
TAF
KOGB 291133Z 2912/3012 VRB03KT P6SM SCT250
     FM291400 12008KT P6SM FEW040 BKN250
     FM292100 14010KT P6SM BKN050 OVC250
     FM300400 15004KT P6SM SCT015 BKN040 BKN100 PROB30 3004/3008 4SM
      -TSRA BKN015CB
     FM300900 VRB03KT 4SM BR BKN015=

USA.gov is the U.S. government's official web portal to all federal, state and local government web resources and services.